Time;durP1;ratioP1;P1;durP2;ratioP2;P2;SDS_P1;SDS_P2;PMS_P1;PMS_P2;Temp;Humidity;BMP_temperature;BMP_pressure;BME280_temperature;BME280_humidity;BME280_pressure;Samples;Min_cycle;Max_cycle;Signal;HPM_P1;HPM_P2
2023/09/27 00:00:10;;;;;;;3.10;3.00;;;23.30;46.60;;;;;;4997448;28;20467;-66
2023/09/27 00:02:40;;;;;;;2.97;2.87;;;23.30;46.50;;;;;;5001031;28;21849;-59
2023/09/27 00:05:07;;;;;;;3.40;3.20;;;23.30;46.50;;;;;;4994588;28;20548;-61
2023/09/27 00:07:34;;;;;;;3.10;2.90;;;23.30;46.50;;;;;;4976289;28;20474;-60
2023/09/27 00:10:01;;;;;;;2.60;2.40;;;23.30;46.50;;;;;;4982808;28;20503;-68
2023/09/27 00:12:27;;;;;;;2.83;2.73;;;23.30;47.30;;;;;;4974444;28;20466;-62
2023/09/27 00:14:53;;;;;;;3.00;2.90;;;23.30;46.60;;;;;;4976700;28;21049;-61
2023/09/27 00:17:19;;;;;;;3.27;3.07;;;23.30;46.50;;;;;;4977036;28;20227;-62
2023/09/27 00:19:45;;;;;;;2.90;2.80;;;23.30;46.60;;;;;;4994505;28;20621;-65
2023/09/27 00:22:10;;;;;;;2.80;2.63;;;23.30;46.50;;;;;;4995822;28;20222;-65
2023/09/27 00:24:36;;;;;;;3.13;2.93;;;23.30;46.50;;;;;;4979332;28;20224;-61
2023/09/27 00:27:02;;;;;;;2.77;2.57;;;23.30;46.60;;;;;;4980472;28;20223;-59
2023/09/27 00:29:27;;;;;;;2.90;2.80;;;23.30;46.60;;;;;;4993656;28;21072;-60
2023/09/27 00:31:53;;;;;;;2.50;2.40;;;23.30;46.60;;;;;;4995418;28;20225;-71
2023/09/27 00:34:18;;;;;;;3.00;2.80;;;23.30;46.60;;;;;;4991058;28;20302;-64
2023/09/27 00:36:44;;;;;;;2.90;2.80;;;23.30;46.60;;;;;;4973516;28;20306;-63
2023/09/27 00:39:09;;;;;;;3.30;3.10;;;23.30;46.60;;;;;;4979356;28;20243;-61
2023/09/27 00:41:35;;;;;;;2.90;2.80;;;23.30;46.60;;;;;;4974575;28;20278;-61
2023/09/27 00:44:00;;;;;;;2.93;2.73;;;23.30;46.60;;;;;;4989335;28;20284;-69
2023/09/27 00:46:26;;;;;;;2.53;2.43;;;23.30;46.60;;;;;;4974237;28;20660;-63
2023/09/27 00:48:52;;;;;;;2.73;2.63;;;23.30;46.60;;;;;;4974921;28;20228;-62
2023/09/27 00:51:18;;;;;;;2.80;2.70;;;23.30;46.60;;;;;;4976533;28;20238;-60
2023/09/27 00:53:47;;;;;;;3.20;3.00;;;23.30;46.60;;;;;;4985703;28;20462;-60
2023/09/27 00:56:13;;;;;;;2.70;2.53;;;23.30;47.40;;;;;;4981133;28;20648;-70
2023/09/27 00:58:39;;;;;;;2.70;2.60;;;23.30;46.60;;;;;;4981572;28;20465;-62
2023/09/27 01:01:05;;;;;;;2.77;2.67;;;23.30;46.70;;;;;;4978047;28;20349;-60
2023/09/27 01:03:32;;;;;;;3.43;3.30;;;23.30;46.60;;;;;;4974051;28;20234;-69
2023/09/27 01:05:58;;;;;;;2.80;2.70;;;23.30;46.60;;;;;;4975312;28;20223;-69
2023/09/27 01:08:23;;;;;;;2.60;2.50;;;23.30;46.70;;;;;;4988175;28;20938;-61
2023/09/27 01:10:49;;;;;;;2.60;2.50;;;23.30;46.70;;;;;;4984687;28;20504;-60
2023/09/27 01:13:15;;;;;;;2.70;2.50;;;23.30;46.70;;;;;;4981123;28;20442;-70
2023/09/27 01:15:41;;;;;;;3.03;2.93;;;23.30;46.70;;;;;;4980212;28;20995;-68
2023/09/27 01:18:06;;;;;;;2.83;2.73;;;23.30;46.70;;;;;;4977951;28;20228;-69
2023/09/27 01:20:35;;;;;;;3.50;3.30;;;23.30;46.60;;;;;;4977283;28;20573;-63
2023/09/27 01:23:02;;;;;;;2.63;2.53;;;23.30;46.60;;;;;;4980616;28;20313;-60
2023/09/27 01:25:32;;;;;;;2.80;2.70;;;23.30;46.70;;;;;;5001998;28;21037;-64
2023/09/27 01:28:06;;;;;;;2.67;2.57;;;23.30;46.60;;;;;;5005087;28;21284;-59
2023/09/27 01:30:32;;;;;;;2.30;2.20;;;23.30;46.70;;;;;;5005000;28;20696;-61
2023/09/27 01:33:18;;;;;;;2.83;2.73;;;23.30;46.70;;;;;;4993572;28;21013;-59
2023/09/27 01:35:44;;;;;;;3.20;2.90;;;23.30;46.60;;;;;;4986167;28;20297;-63
2023/09/27 01:38:12;;;;;;;2.57;2.47;;;23.30;46.70;;;;;;4984474;28;20566;-62
2023/09/27 01:40:43;;;;;;;3.17;2.97;;;23.30;46.70;;;;;;5001174;28;20242;-67
2023/09/27 01:43:09;;;;;;;2.90;2.80;;;23.30;46.70;;;;;;5000173;28;21015;-69
2023/09/27 01:45:35;;;;;;;3.03;2.87;;;23.30;46.80;;;;;;4981880;28;20475;-67
2023/09/27 01:48:02;;;;;;;2.60;2.50;;;23.30;46.80;;;;;;4993778;28;20477;-60
2023/09/27 01:50:29;;;;;;;2.97;2.77;;;23.30;46.70;;;;;;4976393;28;20462;-60
2023/09/27 01:52:56;;;;;;;2.63;2.53;;;23.30;46.70;;;;;;4983445;28;20580;-67
2023/09/27 01:55:23;;;;;;;2.60;2.50;;;23.30;46.70;;;;;;4995239;28;20486;-60
2023/09/27 01:57:49;;;;;;;2.70;2.57;;;23.30;46.80;;;;;;4998047;28;20492;-63
2023/09/27 02:00:16;;;;;;;2.50;2.40;;;23.30;46.70;;;;;;4992042;28;20464;-63
2023/09/27 02:03:01;;;;;;;3.10;3.00;;;23.30;46.70;;;;;;4995320;28;20821;-64
2023/09/27 02:05:29;;;;;;;2.87;2.70;;;23.30;46.70;;;;;;4999371;28;20860;-62
2023/09/27 02:07:55;;;;;;;3.10;3.00;;;23.30;46.70;;;;;;4993273;28;20486;-67
2023/09/27 02:10:21;;;;;;;2.83;2.73;;;23.30;46.70;;;;;;4997221;28;22419;-62
2023/09/27 02:12:47;;;;;;;2.80;2.70;;;23.30;46.70;;;;;;5000295;28;20467;-63
2023/09/27 02:15:14;;;;;;;2.60;2.50;;;23.20;46.70;;;;;;4994760;28;20918;-61
2023/09/27 02:17:40;;;;;;;2.77;2.67;;;23.30;46.70;;;;;;5001536;28;20222;-62
2023/09/27 02:20:10;;;;;;;2.80;2.70;;;23.30;46.80;;;;;;4998069;28;20460;-60
2023/09/27 02:22:38;;;;;;;2.77;2.67;;;23.30;46.70;;;;;;4986646;28;20465;-67
2023/09/27 02:25:08;;;;;;;2.90;2.80;;;23.30;46.70;;;;;;4998231;28;20456;-67
2023/09/27 02:27:35;;;;;;;2.73;2.60;;;23.20;46.70;;;;;;4985760;28;21258;-68
2023/09/27 02:30:00;;;;;;;3.07;2.87;;;23.20;46.70;;;;;;4987816;28;20487;-68
2023/09/27 02:32:26;;;;;;;2.50;2.40;;;23.30;46.70;;;;;;4999284;28;20465;-62
2023/09/27 02:34:52;;;;;;;2.60;2.50;;;23.20;46.70;;;;;;4998631;28;20227;-62
2023/09/27 02:37:17;;;;;;;2.80;2.70;;;23.30;46.80;;;;;;4993295;28;20223;-59
2023/09/27 02:39:43;;;;;;;2.40;2.30;;;23.20;46.70;;;;;;4984478;28;20254;-67
2023/09/27 02:42:12;;;;;;;2.80;2.63;;;23.20;46.70;;;;;;4992253;28;20219;-63
2023/09/27 02:44:38;;;;;;;2.97;2.77;;;23.20;46.70;;;;;;4997538;28;20485;-60
2023/09/27 02:47:04;;;;;;;2.90;2.80;;;23.30;46.80;;;;;;4998520;28;20463;-66
2023/09/27 02:49:29;;;;;;;2.80;2.60;;;23.30;46.80;;;;;;4997913;28;20235;-66
2023/09/27 02:51:55;;;;;;;2.80;2.70;;;23.20;46.70;;;;;;4997932;28;20251;-67
2023/09/27 02:54:21;;;;;;;3.50;3.30;;;23.20;46.70;;;;;;4999679;28;20673;-67
2023/09/27 02:56:47;;;;;;;2.50;2.40;;;23.20;46.70;;;;;;4998177;28;20228;-60
2023/09/27 02:59:13;;;;;;;2.40;2.30;;;23.20;46.80;;;;;;4996525;28;20486;-66
2023/09/27 03:01:40;;;;;;;2.63;2.43;;;23.20;46.70;;;;;;4995479;28;20285;-69
2023/09/27 03:04:06;;;;;;;2.60;2.50;;;23.20;46.70;;;;;;5001127;28;20460;-62
2023/09/27 03:06:33;;;;;;;2.27;2.17;;;23.20;46.70;;;;;;4996343;28;20453;-60
2023/09/27 03:08:58;;;;;;;3.17;2.97;;;23.30;46.80;;;;;;4999959;28;20973;-67
2023/09/27 03:11:24;;;;;;;2.90;2.80;;;23.30;46.80;;;;;;4999140;28;20459;-61
2023/09/27 03:13:49;;;;;;;2.57;2.47;;;23.20;46.80;;;;;;4998173;28;21124;-67
2023/09/27 03:16:15;;;;;;;2.47;2.37;;;23.30;46.80;;;;;;4995235;28;20223;-59
2023/09/27 03:18:41;;;;;;;2.30;2.20;;;23.20;46.80;;;;;;4985184;28;22419;-67
2023/09/27 03:21:06;;;;;;;3.00;2.90;;;23.20;46.70;;;;;;4996690;28;20228;-59
2023/09/27 03:23:32;;;;;;;2.60;2.50;;;23.20;46.70;;;;;;4993450;28;20230;-66
2023/09/27 03:25:58;;;;;;;2.97;2.73;;;23.20;46.70;;;;;;4997499;28;20227;-66
2023/09/27 03:28:23;;;;;;;2.43;2.33;;;23.20;46.70;;;;;;4986953;28;20230;-66
2023/09/27 03:30:49;;;;;;;3.03;2.83;;;23.20;46.70;;;;;;4991783;28;20235;-61
2023/09/27 03:33:15;;;;;;;2.53;2.33;;;23.20;46.80;;;;;;4988593;28;20554;-65
2023/09/27 03:35:41;;;;;;;2.77;2.67;;;23.20;46.80;;;;;;4985359;28;20453;-62
2023/09/27 03:38:07;;;;;;;2.77;2.67;;;23.20;46.80;;;;;;4993848;28;20244;-59
2023/09/27 03:40:33;;;;;;;2.40;2.30;;;23.20;46.80;;;;;;5000458;28;20471;-64
2023/09/27 03:42:58;;;;;;;2.17;2.07;;;23.30;46.80;;;;;;5004047;28;20215;-60
2023/09/27 03:45:25;;;;;;;2.63;2.53;;;23.20;46.80;;;;;;4993907;28;20222;-64
2023/09/27 03:47:50;;;;;;;2.77;2.67;;;23.20;47.20;;;;;;4989919;28;20722;-61
2023/09/27 03:50:16;;;;;;;3.20;3.00;;;23.20;46.80;;;;;;4993862;28;20572;-59
2023/09/27 03:52:42;;;;;;;2.43;2.33;;;23.30;46.80;;;;;;4974249;28;20314;-63
2023/09/27 03:55:09;;;;;;;2.80;2.60;;;23.20;46.80;;;;;;4996497;28;20488;-67
2023/09/27 03:57:34;;;;;;;2.67;2.57;;;23.20;46.80;;;;;;4985007;28;20464;-69
2023/09/27 04:00:00;;;;;;;2.83;2.70;;;23.20;46.80;;;;;;4996975;28;20456;-67
2023/09/27 04:02:28;;;;;;;2.80;2.70;;;23.20;46.90;;;;;;4998201;28;20742;-59
2023/09/27 04:04:53;;;;;;;3.23;3.03;;;23.20;46.90;;;;;;4995367;28;20225;-61
2023/09/27 04:07:19;;;;;;;2.40;2.30;;;23.20;46.90;;;;;;4995437;28;20957;-72
2023/09/27 04:09:45;;;;;;;2.93;2.73;;;23.20;46.90;;;;;;4989580;28;20232;-64
2023/09/27 04:12:11;;;;;;;2.97;2.87;;;23.20;46.80;;;;;;4991420;28;20237;-60
2023/09/27 04:14:37;;;;;;;2.80;2.70;;;23.30;46.90;;;;;;4989861;28;20461;-64
2023/09/27 04:17:03;;;;;;;2.80;2.70;;;23.20;46.80;;;;;;4997835;28;20216;-63
2023/09/27 04:19:29;;;;;;;2.73;2.63;;;23.30;46.80;;;;;;4983992;28;20905;-66
2023/09/27 04:21:54;;;;;;;3.07;2.87;;;23.30;46.70;;;;;;4973145;28;20298;-65
2023/09/27 04:24:20;;;;;;;3.03;2.83;;;23.30;46.70;;;;;;4986840;28;20312;-67
2023/09/27 04:26:45;;;;;;;2.97;2.77;;;23.30;46.70;;;;;;4994324;28;20219;-62
2023/09/27 04:29:11;;;;;;;3.17;3.00;;;23.30;46.60;;;;;;4995506;28;20227;-72
2023/09/27 04:31:36;;;;;;;2.30;2.20;;;23.30;46.70;;;;;;4979492;28;20312;-61
2023/09/27 04:34:02;;;;;;;2.87;2.67;;;23.40;46.70;;;;;;4983401;28;20275;-66
2023/09/27 04:36:28;;;;;;;2.70;2.50;;;23.40;46.70;;;;;;4992671;28;21225;-70
2023/09/27 04:38:53;;;;;;;2.50;2.40;;;23.30;46.60;;;;;;4982965;28;20982;-68
2023/09/27 04:41:20;;;;;;;2.63;2.53;;;23.40;46.70;;;;;;4995947;28;20692;-69
2023/09/27 04:43:46;;;;;;;2.33;2.13;;;23.30;46.60;;;;;;4990912;28;20227;-62
2023/09/27 04:46:16;;;;;;;2.20;2.10;;;23.40;46.70;;;;;;4991544;28;20468;-68
2023/09/27 04:48:42;;;;;;;2.63;2.53;;;23.30;46.60;;;;;;4994837;28;20710;-67
2023/09/27 04:51:08;;;;;;;2.20;2.10;;;23.30;46.60;;;;;;4986697;28;20473;-65
2023/09/27 04:53:37;;;;;;;2.40;2.30;;;23.40;46.80;;;;;;4985992;28;21620;-63
2023/09/27 04:56:11;;;;;;;2.47;2.37;;;23.30;46.70;;;;;;4993592;28;20449;-71
2023/09/27 04:58:41;;;;;;;2.77;2.67;;;23.30;46.70;;;;;;4991649;28;20526;-68
2023/09/27 05:01:09;;;;;;;2.40;2.30;;;23.30;46.70;;;;;;4994962;28;20480;-69
2023/09/27 05:03:35;;;;;;;2.40;2.30;;;23.40;46.80;;;;;;4994823;28;20468;-64
2023/09/27 05:06:01;;;;;;;2.63;2.43;;;23.30;46.70;;;;;;5001180;28;20839;-66
2023/09/27 05:08:26;;;;;;;2.50;2.40;;;23.30;46.70;;;;;;4999538;28;20479;-60
2023/09/27 05:10:52;;;;;;;2.40;2.30;;;23.30;46.70;;;;;;4995744;28;20245;-64
2023/09/27 05:13:21;;;;;;;2.40;2.30;;;23.30;46.70;;;;;;4996251;28;20231;-64
2023/09/27 05:15:53;;;;;;;2.60;2.40;;;23.30;46.70;;;;;;4992426;28;20223;-62
2023/09/27 05:18:19;;;;;;;2.70;2.50;;;23.30;46.70;;;;;;5004341;28;20500;-67
2023/09/27 05:20:45;;;;;;;2.70;2.50;;;23.40;46.80;;;;;;4992805;28;20467;-64
2023/09/27 05:23:11;;;;;;;4.07;2.10;;;23.30;46.70;;;;;;4989790;28;22546;-62
2023/09/27 05:25:37;;;;;;;3.60;2.40;;;23.30;46.70;;;;;;4976719;28;20676;-67
2023/09/27 05:28:03;;;;;;;3.43;3.20;;;23.30;46.70;;;;;;4993279;28;20513;-62
2023/09/27 05:30:29;;;;;;;4.20;2.90;;;23.30;46.60;;;;;;4999700;28;20227;-69
2023/09/27 05:32:54;;;;;;;2.70;2.60;;;23.30;46.70;;;;;;5001982;28;20654;-67
2023/09/27 05:35:20;;;;;;;4.77;2.53;;;23.30;46.70;;;;;;4992143;28;20262;-62
2023/09/27 05:37:46;;;;;;;2.83;2.67;;;23.30;46.70;;;;;;4990598;28;20242;-61
2023/09/27 05:40:12;;;;;;;3.83;3.47;;;23.30;46.60;;;;;;5001776;28;20274;-67
2023/09/27 05:42:38;;;;;;;2.73;2.63;;;23.30;46.60;;;;;;5002238;28;20258;-67
2023/09/27 05:45:04;;;;;;;2.80;2.60;;;23.30;46.70;;;;;;5002569;28;20541;-61
2023/09/27 05:47:30;;;;;;;2.30;2.20;;;23.30;46.60;;;;;;4995117;28;20452;-61
2023/09/27 05:49:56;;;;;;;2.70;2.50;;;23.30;46.70;;;;;;4998290;28;20223;-70
2023/09/27 05:52:22;;;;;;;2.60;2.50;;;23.30;46.70;;;;;;4998318;28;20479;-66
2023/09/27 05:54:47;;;;;;;2.50;2.30;;;23.40;46.70;;;;;;4987050;28;20227;-71
2023/09/27 05:57:14;;;;;;;2.50;2.40;;;23.30;46.60;;;;;;4991669;28;20231;-62
2023/09/27 05:59:41;;;;;;;4.13;2.30;;;23.30;46.60;;;;;;4999028;28;20243;-64
2023/09/27 06:02:07;;;;;;;2.43;2.33;;;23.40;46.70;;;;;;5002820;28;21041;-68
2023/09/27 06:04:33;;;;;;;4.23;2.70;;;23.30;46.60;;;;;;4997626;28;20531;-63
2023/09/27 06:06:58;;;;;;;2.57;2.47;;;23.30;46.60;;;;;;4997742;28;20613;-62
2023/09/27 06:09:24;;;;;;;2.57;2.47;;;23.40;46.70;;;;;;4992797;28;20276;-61
2023/09/27 06:11:50;;;;;;;2.70;2.60;;;23.40;46.70;;;;;;4973947;28;20223;-63
2023/09/27 06:14:16;;;;;;;2.70;2.50;;;23.30;46.60;;;;;;4998172;28;20498;-65
2023/09/27 06:16:44;;;;;;;2.90;2.80;;;23.40;46.70;;;;;;4998273;28;20599;-61
2023/09/27 06:19:11;;;;;;;2.53;2.43;;;23.30;46.50;;;;;;5004638;28;20234;-60
2023/09/27 06:21:37;;;;;;;2.50;2.40;;;23.30;46.60;;;;;;5006334;28;20461;-65
2023/09/27 06:24:04;;;;;;;2.40;2.30;;;23.30;46.50;;;;;;5005700;28;20476;-61
2023/09/27 06:26:30;;;;;;;2.80;2.60;;;23.30;46.50;;;;;;4984244;28;20457;-60
2023/09/27 06:28:55;;;;;;;2.67;2.57;;;23.40;46.60;;;;;;4991500;28;21013;-62
2023/09/27 06:31:21;;;;;;;2.60;2.50;;;23.30;46.50;;;;;;4997456;28;20230;-63
2023/09/27 06:33:47;;;;;;;2.27;2.17;;;23.40;46.60;;;;;;5003103;28;20261;-60
2023/09/27 06:36:16;;;;;;;2.47;2.37;;;23.30;46.60;;;;;;4989744;28;20239;-65
2023/09/27 06:38:41;;;;;;;2.37;2.27;;;23.40;46.70;;;;;;5007555;28;20476;-66
2023/09/27 06:41:08;;;;;;;3.00;2.70;;;23.30;46.60;;;;;;4996828;28;21514;-59
2023/09/27 06:43:34;;;;;;;3.20;3.00;;;23.40;46.70;;;;;;4997645;28;20305;-63
2023/09/27 06:46:03;;;;;;;3.27;3.07;;;23.30;46.60;;;;;;4994816;28;20861;-63
2023/09/27 06:48:29;;;;;;;2.60;2.40;;;23.30;46.60;;;;;;4993870;28;20392;-68
2023/09/27 06:50:54;;;;;;;2.60;2.50;;;23.30;46.60;;;;;;4993236;28;20518;-68
2023/09/27 06:53:20;;;;;;;2.80;2.70;;;23.40;46.70;;;;;;4992245;28;20617;-60
2023/09/27 06:55:46;;;;;;;2.37;2.27;;;23.30;46.60;;;;;;4997510;28;20215;-68
2023/09/27 06:58:13;;;;;;;2.43;2.33;;;23.40;46.70;;;;;;4987821;28;20504;-63
2023/09/27 07:00:42;;;;;;;2.97;2.87;;;23.40;46.70;;;;;;4994310;28;20222;-63
2023/09/27 07:03:09;;;;;;;2.63;2.53;;;23.40;46.70;;;;;;4993790;28;20471;-70
2023/09/27 07:05:35;;;;;;;3.50;3.30;;;23.40;46.70;;;;;;4977509;28;20464;-68
2023/09/27 07:08:01;;;;;;;2.90;2.70;;;23.40;46.60;;;;;;4996972;28;20458;-69
2023/09/27 07:10:26;;;;;;;2.67;2.57;;;23.40;46.70;;;;;;4997847;28;20945;-61
2023/09/27 07:12:52;;;;;;;2.83;2.73;;;23.40;46.70;;;;;;4989026;28;20283;-64
2023/09/27 07:15:18;;;;;;;2.40;2.30;;;23.40;46.70;;;;;;4999816;28;20258;-67
2023/09/27 07:17:44;;;;;;;2.10;2.00;;;23.40;46.70;;;;;;5003716;28;20223;-63
2023/09/27 07:20:23;;;;;;;2.97;2.77;;;23.40;46.70;;;;;;4998326;28;20246;-66
2023/09/27 07:22:49;;;;;;;2.33;2.23;;;23.40;46.70;;;;;;5001733;28;20459;-61
2023/09/27 07:25:18;;;;;;;3.17;2.97;;;23.40;46.80;;;;;;5002980;28;21197;-65
2023/09/27 07:27:46;;;;;;;2.50;2.30;;;23.40;46.70;;;;;;4999848;28;20759;-64
2023/09/27 07:30:11;;;;;;;2.97;2.77;;;23.40;46.70;;;;;;5000910;28;20583;-63
2023/09/27 07:32:39;;;;;;;2.57;2.37;;;23.40;46.80;;;;;;5002120;28;20460;-61
2023/09/27 07:35:09;;;;;;;2.63;2.53;;;23.40;46.70;;;;;;5001403;28;20234;-69
2023/09/27 07:37:37;;;;;;;3.17;2.87;;;23.40;46.70;;;;;;4998891;28;20469;-61
2023/09/27 07:40:11;;;;;;;2.67;2.57;;;23.40;46.70;;;;;;4989039;28;20469;-64
2023/09/27 07:42:37;;;;;;;2.47;2.37;;;23.40;46.80;;;;;;4985703;28;20535;-68
2023/09/27 07:45:05;;;;;;;2.43;2.33;;;23.40;46.70;;;;;;4995023;28;20453;-68
2023/09/27 07:47:31;;;;;;;2.77;2.67;;;23.40;46.70;;;;;;5000770;28;20563;-60
2023/09/27 07:49:56;;;;;;;2.60;2.50;;;23.40;46.70;;;;;;4995039;28;20465;-65
2023/09/27 07:52:22;;;;;;;2.77;2.57;;;23.40;46.80;;;;;;4996813;28;20241;-63
2023/09/27 07:54:47;;;;;;;3.07;2.70;;;23.40;46.80;;;;;;4986089;28;20218;-67
2023/09/27 07:57:14;;;;;;;2.67;2.57;;;23.40;46.80;;;;;;4989119;28;20237;-65
2023/09/27 07:59:39;;;;;;;3.03;2.93;;;23.40;46.80;;;;;;4993520;28;20243;-67
2023/09/27 08:02:05;;;;;;;2.60;2.50;;;23.40;46.80;;;;;;4989677;28;21252;-65
2023/09/27 08:04:31;;;;;;;2.53;2.43;;;23.40;46.80;;;;;;4988644;28;20697;-66
2023/09/27 08:06:56;;;;;;;2.87;2.77;;;23.40;46.80;;;;;;4972266;28;20238;-68
2023/09/27 08:09:22;;;;;;;2.73;2.53;;;23.40;46.80;;;;;;4989395;28;21251;-63
2023/09/27 08:11:48;;;;;;;2.40;2.30;;;23.40;46.80;;;;;;4969378;28;20227;-62
2023/09/27 08:14:18;;;;;;;2.70;2.60;;;23.40;46.80;;;;;;4972054;28;20290;-78
2023/09/27 08:16:43;;;;;;;2.63;2.53;;;23.40;46.80;;;;;;4989772;28;20478;-65
2023/09/27 08:19:09;;;;;;;2.80;2.70;;;23.40;46.90;;;;;;5002363;28;20469;-67
2023/09/27 08:21:34;;;;;;;2.60;2.50;;;23.40;46.80;;;;;;5000868;28;20234;-64
2023/09/27 08:24:00;;;;;;;2.90;2.70;;;23.40;46.80;;;;;;4993215;28;20227;-66
2023/09/27 08:26:26;;;;;;;2.30;2.20;;;23.40;46.80;;;;;;4999071;28;20230;-67
2023/09/27 08:28:51;;;;;;;2.80;2.70;;;23.40;46.80;;;;;;4991156;28;20240;-64
2023/09/27 08:31:17;;;;;;;2.30;2.20;;;23.40;46.80;;;;;;4995238;28;20223;-61
2023/09/27 08:33:43;;;;;;;2.60;2.50;;;23.40;46.80;;;;;;5001135;28;20225;-62
2023/09/27 08:36:09;;;;;;;2.90;2.70;;;23.40;46.80;;;;;;4999437;28;20227;-74
2023/09/27 08:38:34;;;;;;;2.40;2.30;;;23.40;46.80;;;;;;4991481;28;20846;-68
2023/09/27 08:41:00;;;;;;;3.10;2.80;;;23.40;46.80;;;;;;5000931;28;20349;-67
2023/09/27 08:43:28;;;;;;;2.70;2.50;;;23.40;46.80;;;;;;4977730;28;20286;-65
2023/09/27 08:45:54;;;;;;;2.37;2.27;;;23.40;46.80;;;;;;4984442;28;20313;-68
2023/09/27 08:48:22;;;;;;;2.40;2.30;;;23.40;46.80;;;;;;5000083;28;20823;-69
2023/09/27 08:50:50;;;;;;;2.67;2.57;;;23.40;46.90;;;;;;4996342;28;20277;-65
2023/09/27 08:53:15;;;;;;;2.83;2.37;;;23.40;46.90;;;;;;4996475;28;20472;-70
2023/09/27 08:55:47;;;;;;;2.80;2.70;;;23.40;46.80;;;;;;4993819;28;20461;-64
2023/09/27 08:58:14;;;;;;;2.57;2.47;;;23.40;46.80;;;;;;4993547;28;22851;-69
2023/09/27 09:00:41;;;;;;;3.10;3.00;;;23.40;46.80;;;;;;5000661;28;20552;-72
2023/09/27 09:03:07;;;;;;;2.53;2.43;;;23.40;46.90;;;;;;4998665;28;20460;-66
2023/09/27 09:05:33;;;;;;;5.73;2.67;;;23.40;46.90;;;;;;5000258;28;20464;-64
2023/09/27 09:08:00;;;;;;;5.80;2.83;;;23.40;46.80;;;;;;5004815;28;20554;-66
2023/09/27 09:10:27;;;;;;;3.17;2.97;;;23.40;46.80;;;;;;4993181;28;20564;-67
2023/09/27 09:12:53;;;;;;;4.43;2.97;;;23.40;46.80;;;;;;4990607;28;20477;-61
2023/09/27 09:15:36;;;;;;;2.57;2.37;;;23.50;46.90;;;;;;4992029;28;20724;-69
2023/09/27 09:18:06;;;;;;;3.03;2.83;;;23.50;46.90;;;;;;4976264;28;20330;-68
2023/09/27 09:20:33;;;;;;;3.10;2.77;;;23.50;46.90;;;;;;4979518;28;21125;-63
2023/09/27 09:23:06;;;;;;;2.77;2.57;;;23.50;46.90;;;;;;4989925;28;20506;-62
2023/09/27 09:25:42;;;;;;;4.43;2.57;;;23.50;46.90;;;;;;4982572;28;20472;-70
2023/09/27 09:28:08;;;;;;;3.70;3.50;;;23.40;46.80;;;;;;4983553;28;20460;-61
2023/09/27 09:30:35;;;;;;;3.23;2.90;;;23.50;47.00;;;;;;4990224;28;21156;-64
2023/09/27 09:33:01;;;;;;;3.30;3.10;;;23.50;46.90;;;;;;5001225;28;20350;-61
2023/09/27 09:35:32;;;;;;;4.13;2.50;;;23.40;46.90;;;;;;4992355;28;20473;-62
2023/09/27 09:38:03;;;;;;;2.80;2.70;;;23.50;47.00;;;;;;4979138;28;21136;-70
2023/09/27 09:40:31;;;;;;;2.67;2.57;;;23.40;46.90;;;;;;4985890;28;20475;-68
2023/09/27 09:42:59;;;;;;;3.30;3.00;;;23.40;46.90;;;;;;4986824;28;20582;-67
2023/09/27 09:45:24;;;;;;;2.70;2.60;;;23.50;47.10;;;;;;5001136;28;20563;-63
2023/09/27 09:47:51;;;;;;;2.77;2.57;;;23.40;46.90;;;;;;5005589;28;20464;-70
2023/09/27 09:50:17;;;;;;;2.97;2.77;;;23.50;47.10;;;;;;4981387;28;20731;-63
2023/09/27 09:52:49;;;;;;;3.23;2.90;;;23.50;47.10;;;;;;5002247;28;20463;-65
2023/09/27 09:55:19;;;;;;;2.70;2.60;;;23.50;47.00;;;;;;4995726;28;21632;-63
2023/09/27 09:57:46;;;;;;;2.87;2.70;;;23.50;47.00;;;;;;4981973;28;20555;-61
2023/09/27 10:00:18;;;;;;;2.90;2.70;;;23.40;46.90;;;;;;4995753;28;20554;-67
2023/09/27 10:02:54;;;;;;;2.67;2.57;;;23.40;46.90;;;;;;4997372;28;20803;-59
2023/09/27 10:05:23;;;;;;;3.87;3.57;;;23.50;47.00;;;;;;4981761;28;20460;-66
2023/09/27 10:07:50;;;;;;;3.10;2.70;;;23.50;47.00;;;;;;4977124;28;20492;-66
2023/09/27 10:10:20;;;;;;;3.03;2.93;;;23.40;47.00;;;;;;4984399;28;20470;-62
2023/09/27 10:12:48;;;;;;;2.50;2.40;;;23.50;47.00;;;;;;4999838;28;20463;-61
2023/09/27 10:15:17;;;;;;;2.80;2.70;;;23.50;47.00;;;;;;4995925;28;20530;-65
2023/09/27 10:17:43;;;;;;;2.93;2.73;;;23.50;47.10;;;;;;5007538;28;20462;-63
2023/09/27 10:20:14;;;;;;;2.50;2.40;;;23.50;47.30;;;;;;4996906;28;20471;-61
2023/09/27 10:22:50;;;;;;;3.40;3.20;;;23.50;47.00;;;;;;5003863;28;20231;-61
2023/09/27 10:25:29;;;;;;;2.70;2.60;;;23.50;47.00;;;;;;5000461;28;20819;-68
2023/09/27 10:28:12;;;;;;;2.40;2.30;;;23.50;47.00;;;;;;4998074;28;20969;-68
2023/09/27 10:30:40;;;;;;;2.80;2.60;;;23.50;47.00;;;;;;5009282;28;20472;-65
2023/09/27 10:33:15;;;;;;;2.80;2.60;;;23.50;47.10;;;;;;4998168;28;20464;-64
2023/09/27 10:36:00;;;;;;;3.40;3.00;;;23.50;47.00;;;;;;4992276;28;21615;-63
2023/09/27 10:38:48;;;;;;;3.03;2.83;;;23.50;47.10;;;;;;4997791;28;20492;-68
2023/09/27 10:41:32;;;;;;;2.87;2.57;;;23.50;47.00;;;;;;4996860;28;20514;-62
2023/09/27 10:44:04;;;;;;;2.80;2.70;;;23.50;47.00;;;;;;5000156;28;20528;-67
2023/09/27 10:46:43;;;;;;;2.77;2.67;;;23.50;47.10;;;;;;4995451;28;20472;-61
2023/09/27 10:49:09;;;;;;;2.70;2.60;;;23.50;47.10;;;;;;5001851;28;20476;-68
2023/09/27 10:51:35;;;;;;;2.60;2.50;;;23.50;47.00;;;;;;4997209;28;20511;-63
2023/09/27 10:54:10;;;;;;;2.87;2.77;;;23.50;47.10;;;;;;5002917;28;20227;-65
2023/09/27 10:56:36;;;;;;;2.53;2.43;;;23.50;47.10;;;;;;4985681;28;20472;-67
2023/09/27 10:59:03;;;;;;;2.77;2.57;;;23.50;47.10;;;;;;4993097;28;20473;-65
2023/09/27 11:01:29;;;;;;;2.60;2.50;;;23.50;47.00;;;;;;5002804;28;20241;-70
2023/09/27 11:03:58;;;;;;;2.67;2.57;;;23.50;46.90;;;;;;4991999;28;20471;-60
2023/09/27 11:06:24;;;;;;;2.43;2.33;;;23.50;47.10;;;;;;4998659;28;20215;-65
2023/09/27 11:08:50;;;;;;;2.77;2.57;;;23.50;47.10;;;;;;5000836;28;20467;-60
2023/09/27 11:11:15;;;;;;;2.40;2.30;;;23.50;47.10;;;;;;5000259;28;20222;-60
2023/09/27 11:13:45;;;;;;;2.73;2.53;;;23.50;47.10;;;;;;5000726;28;20223;-62
2023/09/27 11:16:14;;;;;;;2.53;2.43;;;23.50;47.10;;;;;;5003285;28;21263;-63
2023/09/27 11:18:51;;;;;;;2.60;2.50;;;23.50;47.10;;;;;;5001754;28;20468;-63
2023/09/27 11:21:17;;;;;;;2.70;2.60;;;23.50;47.10;;;;;;4985994;28;20489;-66
2023/09/27 11:23:52;;;;;;;2.30;2.20;;;23.50;47.10;;;;;;5005188;28;20820;-65
2023/09/27 11:26:21;;;;;;;2.77;2.57;;;23.50;47.10;;;;;;4998692;28;20298;-66
2023/09/27 11:29:01;;;;;;;2.90;2.80;;;23.50;47.20;;;;;;4996720;28;20562;-66
2023/09/27 11:31:32;;;;;;;2.70;2.60;;;23.50;47.10;;;;;;4990449;28;20491;-67
2023/09/27 11:34:17;;;;;;;2.80;2.70;;;23.50;47.10;;;;;;4994977;28;20586;-65
2023/09/27 11:36:51;;;;;;;2.60;2.50;;;23.50;47.20;;;;;;4991291;28;20480;-69
2023/09/27 11:39:19;;;;;;;2.80;2.70;;;23.50;47.10;;;;;;4996455;28;20504;-69
2023/09/27 11:41:45;;;;;;;2.80;2.70;;;23.50;47.20;;;;;;4969715;28;20474;-65
2023/09/27 11:44:23;;;;;;;2.50;2.40;;;23.50;47.20;;;;;;4971736;28;20465;-70
2023/09/27 11:46:49;;;;;;;2.70;2.60;;;23.50;47.20;;;;;;4966644;28;20468;-70
2023/09/27 11:49:16;;;;;;;2.67;2.57;;;23.50;47.20;;;;;;4987575;28;20514;-66
2023/09/27 11:51:42;;;;;;;2.97;2.87;;;23.50;47.20;;;;;;4996770;28;20495;-72
2023/09/27 11:54:08;;;;;;;3.00;2.80;;;23.50;47.20;;;;;;4985370;28;20488;-68
2023/09/27 11:56:36;;;;;;;2.80;2.70;;;23.50;47.10;;;;;;4980955;28;20501;-70
2023/09/27 11:59:03;;;;;;;3.10;3.00;;;23.50;47.20;;;;;;4980372;28;20685;-67
2023/09/27 12:01:28;;;;;;;2.57;2.47;;;23.50;47.20;;;;;;4984979;28;20468;-72
2023/09/27 12:03:54;;;;;;;2.73;2.63;;;23.50;47.10;;;;;;4968744;28;20515;-70
2023/09/27 12:06:20;;;;;;;2.43;2.33;;;23.50;46.70;;;;;;4981207;28;20233;-66
2023/09/27 12:08:45;;;;;;;2.30;2.20;;;23.50;47.20;;;;;;4968150;28;20247;-73
2023/09/27 12:11:11;;;;;;;2.40;2.30;;;23.50;47.20;;;;;;4972575;28;20234;-64
2023/09/27 12:13:37;;;;;;;3.23;3.10;;;23.50;47.20;;;;;;4998101;28;20760;-63
2023/09/27 12:16:03;;;;;;;2.80;2.70;;;23.50;47.20;;;;;;4990518;28;20261;-73
2023/09/27 12:18:29;;;;;;;2.40;2.30;;;23.50;47.20;;;;;;4988074;28;20238;-66
2023/09/27 12:20:55;;;;;;;2.77;2.67;;;23.50;47.20;;;;;;4988257;28;20229;-71
2023/09/27 12:23:21;;;;;;;2.77;2.67;;;23.50;47.20;;;;;;4988296;28;20226;-61
2023/09/27 12:25:47;;;;;;;2.70;2.60;;;23.50;47.20;;;;;;4985076;28;21390;-69
2023/09/27 12:28:14;;;;;;;2.53;2.43;;;23.50;47.20;;;;;;4983794;28;21264;-62
2023/09/27 12:30:43;;;;;;;2.90;2.80;;;23.50;47.10;;;;;;4994417;28;20330;-64
2023/09/27 12:33:09;;;;;;;2.60;2.40;;;23.50;47.20;;;;;;4978009;28;20461;-71
2023/09/27 12:35:36;;;;;;;3.00;2.90;;;23.50;47.20;;;;;;4979029;28;20534;-70
2023/09/27 12:38:04;;;;;;;2.67;2.47;;;23.50;47.10;;;;;;4972350;28;20719;-72
2023/09/27 12:40:33;;;;;;;2.77;2.67;;;23.50;47.20;;;;;;4986968;28;20488;-69
2023/09/27 12:43:03;;;;;;;2.70;2.60;;;23.50;47.10;;;;;;4983225;28;20489;-66
2023/09/27 12:45:28;;;;;;;3.97;3.67;;;23.50;47.20;;;;;;4985326;28;20484;-67
2023/09/27 12:47:54;;;;;;;2.70;2.60;;;23.50;47.20;;;;;;4972011;28;20469;-68